createdAt,value
2023-03-15T00:03:20.028Z,0.57
2023-03-15T00:07:19.889Z,0.56
2023-03-15T00:11:20.037Z,0.57
2023-03-15T00:15:19.966Z,0.57
2023-03-15T00:19:19.910Z,0.57
2023-03-15T00:23:19.912Z,0.57
2023-03-15T00:27:19.845Z,0.57
2023-03-15T00:31:19.867Z,0.57
2023-03-15T00:35:19.763Z,0.57
2023-03-15T00:39:19.785Z,0.57
2023-03-15T00:43:19.696Z,0.57
2023-03-15T00:47:19.682Z,0.57
2023-03-15T00:51:19.709Z,0.58
2023-03-15T00:55:19.691Z,0.56
2023-03-15T00:59:19.645Z,0.58
2023-03-15T01:03:19.578Z,0.58
2023-03-15T01:07:19.562Z,0.55
2023-03-15T01:11:19.595Z,0.58
2023-03-15T01:15:19.515Z,0.56
2023-03-15T01:19:19.448Z,0.58
2023-03-15T01:23:19.418Z,0.57
2023-03-15T01:27:19.373Z,0.58
2023-03-15T01:31:19.395Z,0.57
2023-03-15T01:35:19.322Z,0.57
2023-03-15T01:39:19.260Z,0.59
2023-03-15T01:43:19.248Z,0.57
2023-03-15T01:47:19.297Z,0.57
2023-03-15T01:51:19.450Z,0.58
2023-03-15T01:55:19.551Z,0.56
2023-03-15T01:59:19.600Z,0.58
2023-03-15T02:03:19.736Z,0.57
2023-03-15T02:07:19.872Z,0.58
2023-03-15T02:11:20.047Z,0.58
2023-03-15T02:15:20.087Z,0.58
2023-03-15T02:19:20.158Z,0.57
2023-03-15T02:23:20.164Z,0.57
2023-03-15T02:27:20.235Z,0.57
2023-03-15T02:31:20.311Z,0.56
2023-03-15T02:35:20.317Z,0.57
2023-03-15T02:39:20.810Z,0.56
2023-03-15T02:43:20.470Z,0.57
2023-03-15T02:47:20.534Z,0.57
2023-03-15T02:51:20.579Z,0.57
2023-03-15T02:55:20.655Z,0.56
2023-03-15T02:59:20.639Z,0.57
2023-03-15T03:03:20.714Z,0.57
2023-03-15T03:07:20.794Z,0.58
2023-03-15T03:11:20.798Z,0.57
2023-03-15T03:15:20.744Z,0.57
2023-03-15T03:19:20.781Z,0.57
2023-03-15T03:23:20.855Z,0.56
2023-03-15T03:27:20.882Z,0.56
2023-03-15T03:31:20.984Z,0.57
2023-03-15T03:35:20.932Z,0.57
2023-03-15T03:39:20.950Z,0.56
2023-03-15T03:43:20.926Z,0.57
2023-03-15T03:47:20.962Z,0.56
2023-03-15T03:51:20.959Z,0.56
2023-03-15T03:55:20.948Z,0.57
2023-03-15T03:59:21.054Z,0.57
2023-03-15T04:03:21.070Z,0.58
2023-03-15T04:07:21.030Z,0.57
2023-03-15T04:11:21.061Z,0.56
2023-03-15T04:15:21.046Z,0.56
2023-03-15T04:19:21.117Z,0.56
2023-03-15T04:23:21.151Z,0.56
2023-03-15T04:27:21.095Z,0.56
2023-03-15T04:31:21.147Z,0.57
2023-03-15T04:35:21.087Z,0.56
2023-03-15T04:39:21.056Z,0.55
2023-03-15T04:43:21.053Z,0.56
2023-03-15T04:47:21.042Z,0.56
2023-03-15T04:51:21.039Z,0.56
2023-03-15T04:55:21.018Z,0.55
2023-03-15T04:59:20.993Z,0.56
2023-03-15T05:03:20.977Z,0.56
2023-03-15T05:07:21.003Z,0.54
2023-03-15T05:11:21.127Z,0.50
2023-03-15T05:15:21.173Z,0.51
2023-03-15T05:19:21.141Z,0.50
2023-03-15T05:23:21.372Z,0.52
2023-03-15T05:27:21.372Z,0.52
2023-03-15T05:31:21.464Z,0.50
2023-03-15T05:35:21.872Z,0.58
2023-03-15T05:39:21.533Z,0.61
2023-03-15T05:43:21.551Z,0.63
2023-03-15T05:47:21.529Z,0.65
2023-03-15T05:51:21.518Z,0.66
2023-03-15T05:55:21.595Z,0.68
2023-03-15T05:59:21.555Z,0.70
2023-03-15T06:03:21.522Z,0.70
2023-03-15T06:07:21.484Z,0.69
2023-03-15T06:11:21.488Z,0.69
2023-03-15T06:15:21.451Z,0.68
2023-03-15T06:19:21.442Z,0.69
2023-03-15T06:23:21.461Z,0.68
2023-03-15T06:27:21.442Z,0.69
2023-03-15T06:31:21.422Z,0.71
2023-03-15T06:35:21.867Z,0.81
2023-03-15T06:39:21.883Z,0.77
2023-03-15T06:43:21.451Z,0.74
2023-03-15T06:47:21.416Z,0.76
2023-03-15T06:51:21.334Z,0.79
2023-03-15T06:55:21.364Z,0.81
2023-03-15T06:59:21.388Z,0.82
2023-03-15T07:03:21.471Z,0.86
2023-03-15T07:07:21.450Z,0.83
2023-03-15T07:11:21.877Z,0.86
2023-03-15T07:15:21.404Z,0.92
2023-03-15T07:19:21.430Z,0.92
2023-03-15T07:23:21.421Z,0.91
2023-03-15T07:27:21.285Z,0.96
2023-03-15T07:31:21.275Z,0.93
2023-03-15T07:35:21.195Z,0.94
2023-03-15T07:39:21.222Z,0.51
2023-03-15T07:43:21.129Z,0.46
2023-03-15T07:47:21.304Z,0.57
2023-03-15T07:51:21.398Z,1.01
2023-03-15T07:55:21.463Z,1.01
2023-03-15T07:59:21.485Z,1.41
2023-03-15T08:03:21.847Z,1.13
2023-03-15T08:07:21.964Z,1.13
2023-03-15T08:11:22.015Z,1.31
2023-03-15T08:15:22.224Z,1.61
2023-03-15T08:19:22.411Z,1.68
2023-03-15T08:23:22.930Z,1.75
2023-03-15T08:27:22.777Z,2.09
2023-03-15T08:31:23.066Z,1.74
2023-03-15T08:35:23.500Z,0.47
2023-03-15T08:39:23.202Z,0.71
2023-03-15T08:43:23.325Z,0.95
2023-03-15T08:47:23.515Z,1.57
2023-03-15T08:51:23.432Z,1.89
2023-03-15T08:55:23.574Z,1.90
2023-03-15T08:59:31.934Z,1.88
2023-03-15T09:03:24.700Z,2.10
2023-03-15T09:07:23.620Z,1.77
2023-03-15T09:11:23.680Z,2.03
2023-03-15T09:15:23.866Z,2.08
2023-03-15T09:19:24.031Z,2.52
2023-03-15T09:23:24.013Z,2.74
2023-03-15T09:27:23.991Z,0.68
2023-03-15T09:31:23.996Z,0.34
2023-03-15T09:35:23.893Z,0.34
2023-03-15T09:39:23.874Z,0.34
2023-03-15T09:43:23.948Z,0.73
2023-03-15T09:47:23.825Z,1.78
2023-03-15T09:51:23.792Z,3.59
2023-03-15T09:55:23.718Z,10.02
2023-03-15T09:59:23.744Z,10.92
2023-03-15T10:03:23.705Z,13.46
2023-03-15T10:07:24.012Z,13.73
2023-03-15T10:11:23.574Z,23.83
2023-03-15T10:15:23.627Z,18.85
2023-03-15T10:19:23.468Z,31.25
2023-03-15T10:23:23.512Z,25.82
2023-03-15T10:27:23.426Z,32.95
2023-03-15T10:31:32.876Z,28.04
2023-03-15T10:35:24.519Z,32.29
2023-03-15T10:39:23.306Z,39.73
2023-03-15T10:43:23.309Z,33.29
2023-03-15T10:47:24.783Z,33.30
2023-03-15T10:51:23.686Z,38.28
2023-03-15T10:55:23.934Z,48.97
2023-03-15T10:59:24.588Z,36.57
2023-03-15T11:03:24.287Z,32.04
2023-03-15T11:07:24.409Z,32.11
2023-03-15T11:11:24.539Z,37.00
2023-03-15T11:15:24.666Z,41.46
2023-03-15T11:19:24.794Z,34.33
2023-03-15T11:23:24.921Z,42.59
2023-03-15T11:27:25.003Z,31.59
2023-03-15T11:31:25.199Z,37.88
2023-03-15T11:35:26.885Z,34.55
2023-03-15T11:39:25.421Z,31.18
2023-03-15T11:43:25.595Z,29.58
2023-03-15T11:47:26.032Z,19.13
2023-03-15T11:51:25.864Z,27.98
2023-03-15T11:55:26.088Z,33.98
2023-03-15T11:59:26.168Z,32.51
2023-03-15T12:03:26.277Z,35.06
2023-03-15T12:07:26.272Z,46.89
2023-03-15T12:11:26.193Z,35.21
2023-03-15T12:15:26.121Z,47.73
2023-03-15T12:19:26.490Z,12.19
2023-03-15T12:23:26.318Z,4.13
2023-03-15T12:27:26.384Z,5.94
2023-03-15T12:31:26.468Z,5.80
2023-03-15T12:35:26.504Z,7.54
2023-03-15T12:39:26.476Z,9.12
2023-03-15T12:43:26.397Z,11.67
2023-03-15T12:47:26.375Z,9.98
2023-03-15T12:51:26.366Z,11.84
2023-03-15T12:55:26.261Z,11.76
2023-03-15T12:59:26.222Z,12.52
2023-03-15T13:03:26.541Z,13.82
2023-03-15T13:07:26.202Z,20.45
2023-03-15T13:11:26.138Z,21.96
2023-03-15T13:15:26.090Z,28.35
2023-03-15T13:19:26.053Z,37.49
2023-03-15T13:23:26.336Z,43.34
2023-03-15T13:27:26.062Z,45.11
2023-03-15T13:31:26.071Z,53.00
2023-03-15T13:35:25.951Z,44.38
2023-03-15T13:39:25.913Z,52.74
2023-03-15T13:43:26.142Z,51.73
2023-03-15T13:47:25.798Z,45.39
2023-03-15T13:51:25.963Z,49.00
2023-03-15T13:55:25.975Z,55.98
2023-03-15T13:59:25.940Z,28.58
2023-03-15T14:03:25.872Z,31.24
2023-03-15T14:07:25.812Z,44.69
2023-03-15T14:11:25.778Z,34.19
2023-03-15T14:15:25.783Z,41.30
2023-03-15T14:19:25.691Z,40.33
2023-03-15T14:23:25.741Z,44.33
2023-03-15T14:27:25.621Z,49.35
2023-03-15T14:31:25.633Z,43.86
2023-03-15T14:35:25.602Z,44.12
2023-03-15T14:39:25.509Z,43.81
2023-03-15T14:43:25.532Z,34.82
2023-03-15T14:47:25.627Z,40.84
2023-03-15T14:51:25.588Z,35.03
2023-03-15T14:55:25.568Z,31.56
2023-03-15T14:59:25.534Z,23.34
2023-03-15T15:03:25.460Z,19.69
2023-03-15T15:07:25.446Z,19.97
2023-03-15T15:11:25.359Z,18.93
2023-03-15T15:15:25.395Z,21.17
2023-03-15T15:19:25.330Z,17.28
2023-03-15T15:23:25.284Z,16.16
2023-03-15T15:27:25.585Z,15.79
2023-03-15T15:31:25.296Z,12.79
2023-03-15T15:35:25.158Z,10.32
2023-03-15T15:39:25.150Z,11.32
2023-03-15T15:43:25.109Z,11.07
2023-03-15T15:47:25.069Z,9.98
2023-03-15T15:51:25.040Z,11.19
2023-03-15T15:55:25.068Z,8.75
2023-03-15T15:59:24.951Z,8.65
2023-03-15T16:03:24.942Z,8.71
2023-03-15T16:07:24.881Z,10.30
2023-03-15T16:11:24.860Z,12.30
2023-03-15T16:15:24.814Z,13.28
2023-03-15T16:19:24.792Z,14.20
2023-03-15T16:23:24.836Z,14.83
2023-03-15T16:27:25.004Z,14.97
2023-03-15T16:31:25.152Z,15.31
2023-03-15T16:35:25.266Z,14.82
2023-03-15T16:39:25.213Z,15.49
2023-03-15T16:43:25.174Z,15.80
2023-03-15T16:47:25.136Z,15.82
2023-03-15T16:51:25.115Z,15.95
2023-03-15T16:55:25.055Z,15.75
2023-03-15T16:59:25.055Z,16.43
2023-03-15T17:03:24.995Z,16.16
2023-03-15T17:07:25.039Z,15.85
2023-03-15T17:11:24.888Z,16.15
2023-03-15T17:15:24.939Z,15.73
2023-03-15T17:19:24.858Z,15.67
2023-03-15T17:23:24.794Z,15.15
2023-03-15T17:27:24.977Z,15.36
2023-03-15T17:31:25.845Z,15.47
2023-03-15T17:35:25.166Z,15.24
2023-03-15T17:39:25.347Z,15.05
2023-03-15T17:43:25.310Z,14.58
2023-03-15T17:47:25.278Z,15.15
2023-03-15T17:51:25.268Z,14.74
2023-03-15T17:55:25.214Z,14.70
2023-03-15T17:59:25.174Z,14.08
2023-03-15T18:03:25.120Z,14.35
2023-03-15T18:07:25.106Z,13.72
2023-03-15T18:11:25.122Z,13.92
2023-03-15T18:15:25.062Z,12.98
2023-03-15T18:19:25.027Z,13.10
2023-03-15T18:23:24.978Z,13.12
2023-03-15T18:27:24.923Z,13.17
2023-03-15T18:31:24.891Z,13.30
2023-03-15T18:35:24.928Z,12.63
2023-03-15T18:39:25.105Z,12.84
2023-03-15T18:43:25.067Z,12.29
2023-03-15T18:47:25.056Z,12.45
2023-03-15T18:51:24.988Z,12.77
2023-03-15T18:55:24.984Z,13.89
2023-03-15T18:59:25.946Z,14.32
2023-03-15T19:03:24.895Z,14.65
2023-03-15T19:07:24.877Z,13.90
2023-03-15T19:11:24.811Z,13.67
2023-03-15T19:15:24.770Z,13.60
2023-03-15T19:19:24.753Z,13.20
2023-03-15T19:23:24.728Z,12.68
2023-03-15T19:27:24.656Z,12.44
2023-03-15T19:31:24.743Z,12.17
2023-03-15T19:35:24.712Z,11.80
2023-03-15T19:39:24.787Z,11.66
2023-03-15T19:43:24.816Z,11.33
2023-03-15T19:47:25.205Z,11.57
2023-03-15T19:51:25.410Z,11.65
2023-03-15T19:55:25.108Z,11.52
2023-03-15T19:59:25.123Z,11.46
2023-03-15T20:03:25.178Z,11.43
2023-03-15T20:07:25.187Z,11.32
2023-03-15T20:11:25.318Z,11.12
2023-03-15T20:15:26.482Z,10.96
2023-03-15T20:19:25.268Z,11.25
2023-03-15T20:23:25.300Z,10.69
2023-03-15T20:27:25.415Z,10.67
2023-03-15T20:31:25.482Z,10.58
2023-03-15T20:35:25.476Z,10.46
2023-03-15T20:39:25.573Z,10.38
2023-03-15T20:43:25.570Z,10.30
2023-03-15T20:47:25.513Z,10.10
2023-03-15T20:51:25.497Z,9.82
2023-03-15T20:55:25.557Z,9.78
2023-03-15T20:59:25.585Z,9.91
2023-03-15T21:03:25.593Z,9.69
2023-03-15T21:07:25.597Z,9.56
2023-03-15T21:11:25.559Z,9.51
2023-03-15T21:15:25.547Z,9.32
2023-03-15T21:19:25.572Z,9.31
2023-03-15T21:23:25.541Z,9.16
2023-03-15T21:27:25.526Z,8.90
2023-03-15T21:31:25.607Z,8.88
2023-03-15T21:35:25.598Z,8.78
2023-03-15T21:39:25.502Z,8.59
2023-03-15T21:43:25.460Z,8.56
2023-03-15T21:47:25.443Z,8.52
2023-03-15T21:51:25.421Z,8.40
2023-03-15T21:55:25.401Z,8.33
2023-03-15T21:59:25.370Z,8.18
2023-03-15T22:03:25.399Z,8.34
2023-03-15T22:07:25.332Z,8.13
2023-03-15T22:11:25.305Z,7.89
2023-03-15T22:15:25.333Z,7.89
2023-03-15T22:19:25.308Z,7.94
2023-03-15T22:23:25.326Z,7.66
2023-03-15T22:27:25.308Z,7.63
2023-03-15T22:31:25.306Z,7.58
2023-03-15T22:35:25.367Z,7.37
2023-03-15T22:39:25.394Z,7.33
2023-03-15T22:43:25.389Z,7.27
2023-03-15T22:47:25.389Z,7.42
2023-03-15T22:51:25.452Z,7.21
2023-03-15T22:55:25.507Z,7.12
2023-03-15T22:59:25.462Z,7.10
2023-03-15T23:03:25.453Z,6.94
2023-03-15T23:07:25.424Z,6.88
2023-03-15T23:11:25.458Z,6.81
2023-03-15T23:15:25.430Z,6.69
2023-03-15T23:19:25.476Z,6.83
2023-03-15T23:23:25.442Z,6.68
2023-03-15T23:27:25.470Z,6.61
2023-03-15T23:31:25.861Z,6.50
2023-03-15T23:35:25.443Z,6.53
2023-03-15T23:39:25.447Z,6.50
2023-03-15T23:43:25.419Z,6.40
2023-03-15T23:47:25.458Z,6.22
2023-03-15T23:51:25.432Z,6.18
2023-03-15T23:55:25.414Z,6.13
2023-03-15T23:59:25.400Z,6.17
